Skip Navigation Links Skip Navigation Links

Current Weather

Kendall-Tamiami Executive, Miami

For information only: do not use for flight planning or navigation.
Latest weather
Observation time Friday, January 28, 2022 12:26 AM EST
Local time Friday, January 28, 2022 12:38 AM EST
Flight conditions Marginal Visual Meteorological Conditions
Winds
Wind direction North (360°)
Wind speed 5 mph
Visibility 10 mi.
Sky condition
Ceiling 2,000 ft. broken clouds
Cloud layer broken clouds 2,000 ft.
Temperature 70°F
Dewpoint 65°F
Altimeter 30.02 in.Hg
Derived measurements
Relative humidity 84%
Density altitude 894 ft.
Remarks
Fully automated report.
Automated weather observing station with precipitation discriminator.
METAR KTMB 280526Z AUTO 36004KT 10SM BKN020 21/18 A3002 RMK AO2 T02110183

Settings

Location code

InnerDrive.Weather 4.0.6770.0 Release CLR 4.0.30319.42000
Copyright ©2018 Inner Drive Technology. All rights reserved. Portions Copyright ©1986-2018 David Braverman.

Find weather

Site navigation


Skip Navigation Links

Place info

Page info

PayPal - The safer, easier way to pay online!

Return home.

Copyright ©2022 Inner Drive Technology. Purveyors of fine, hand-crafted computer software. Page printed 2022-01-28T05:38:06 UTC.